sensor_id;sensor_type;location;lat;lon;timestamp;P1;durP1;ratioP1;P2;durP2;ratioP2
8139;SDS011;4111;50.972;7.072;2023-07-08T00:00:51;4.05;;;3.65;;
8139;SDS011;4111;50.972;7.072;2023-07-08T00:03:18;6.65;;;4.13;;
8139;SDS011;4111;50.972;7.072;2023-07-08T00:05:45;5.53;;;3.80;;
8139;SDS011;4111;50.972;7.072;2023-07-08T00:08:16;7.35;;;3.88;;
8139;SDS011;4111;50.972;7.072;2023-07-08T00:10:43;5.38;;;4.65;;
8139;SDS011;4111;50.972;7.072;2023-07-08T00:13:10;4.80;;;4.00;;
8139;SDS011;4111;50.972;7.072;2023-07-08T00:15:37;4.50;;;4.10;;
8139;SDS011;4111;50.972;7.072;2023-07-08T00:18:12;6.47;;;4.20;;
8139;SDS011;4111;50.972;7.072;2023-07-08T00:20:43;6.50;;;4.05;;
8139;SDS011;4111;50.972;7.072;2023-07-08T00:23:15;4.75;;;4.25;;
8139;SDS011;4111;50.972;7.072;2023-07-08T00:25:41;5.47;;;4.18;;
8139;SDS011;4111;50.972;7.072;2023-07-08T00:28:09;4.65;;;4.25;;
8139;SDS011;4111;50.972;7.072;2023-07-08T00:30:36;4.32;;;3.95;;
8139;SDS011;4111;50.972;7.072;2023-07-08T00:33:02;5.07;;;4.38;;
8139;SDS011;4111;50.972;7.072;2023-07-08T00:35:33;5.18;;;4.30;;
8139;SDS011;4111;50.972;7.072;2023-07-08T00:38:02;5.35;;;4.40;;
8139;SDS011;4111;50.972;7.072;2023-07-08T00:40:38;5.47;;;4.03;;
8139;SDS011;4111;50.972;7.072;2023-07-08T00:43:15;7.75;;;4.68;;
8139;SDS011;4111;50.972;7.072;2023-07-08T00:45:45;5.00;;;4.03;;
8139;SDS011;4111;50.972;7.072;2023-07-08T00:48:28;5.68;;;4.35;;
8139;SDS011;4111;50.972;7.072;2023-07-08T00:50:58;4.30;;;3.90;;
8139;SDS011;4111;50.972;7.072;2023-07-08T00:53:32;4.38;;;4.00;;
8139;SDS011;4111;50.972;7.072;2023-07-08T00:56:23;4.68;;;4.28;;
8139;SDS011;4111;50.972;7.072;2023-07-08T01:01:24;5.05;;;4.38;;
8139;SDS011;4111;50.972;7.072;2023-07-08T01:04:04;5.32;;;4.75;;
8139;SDS011;4111;50.972;7.072;2023-07-08T01:06:36;4.35;;;3.95;;
8139;SDS011;4111;50.972;7.072;2023-07-08T01:09:06;4.25;;;3.85;;
8139;SDS011;4111;50.972;7.072;2023-07-08T01:11:36;4.60;;;3.90;;
8139;SDS011;4111;50.972;7.072;2023-07-08T01:14:05;5.57;;;4.22;;
8139;SDS011;4111;50.972;7.072;2023-07-08T01:16:35;4.47;;;3.85;;
8139;SDS011;4111;50.972;7.072;2023-07-08T01:19:02;4.78;;;4.00;;
8139;SDS011;4111;50.972;7.072;2023-07-08T01:24:09;4.93;;;4.17;;
8139;SDS011;4111;50.972;7.072;2023-07-08T01:26:39;4.63;;;4.05;;
8139;SDS011;4111;50.972;7.072;2023-07-08T01:29:08;4.70;;;4.03;;
8139;SDS011;4111;50.972;7.072;2023-07-08T01:31:34;4.78;;;4.28;;
8139;SDS011;4111;50.972;7.072;2023-07-08T01:34:02;4.85;;;4.35;;
8139;SDS011;4111;50.972;7.072;2023-07-08T01:36:29;5.78;;;4.43;;
8139;SDS011;4111;50.972;7.072;2023-07-08T01:39:00;5.28;;;4.30;;
8139;SDS011;4111;50.972;7.072;2023-07-08T01:41:26;5.13;;;4.13;;
8139;SDS011;4111;50.972;7.072;2023-07-08T01:43:53;6.22;;;4.25;;
8139;SDS011;4111;50.972;7.072;2023-07-08T01:46:20;5.28;;;4.13;;
8139;SDS011;4111;50.972;7.072;2023-07-08T01:48:53;5.95;;;4.18;;
8139;SDS011;4111;50.972;7.072;2023-07-08T01:51:23;4.25;;;3.72;;
8139;SDS011;4111;50.972;7.072;2023-07-08T01:53:51;9.43;;;4.38;;
8139;SDS011;4111;50.972;7.072;2023-07-08T01:56:18;5.50;;;4.67;;
8139;SDS011;4111;50.972;7.072;2023-07-08T01:58:44;4.60;;;4.20;;
8139;SDS011;4111;50.972;7.072;2023-07-08T02:01:11;7.18;;;4.35;;
8139;SDS011;4111;50.972;7.072;2023-07-08T02:03:37;7.60;;;4.80;;
8139;SDS011;4111;50.972;7.072;2023-07-08T02:06:04;8.05;;;4.82;;
8139;SDS011;4111;50.972;7.072;2023-07-08T02:08:31;5.43;;;4.65;;
8139;SDS011;4111;50.972;7.072;2023-07-08T02:10:57;7.53;;;4.83;;
8139;SDS011;4111;50.972;7.072;2023-07-08T02:13:25;7.57;;;4.97;;
8139;SDS011;4111;50.972;7.072;2023-07-08T02:15:52;5.67;;;4.63;;
8139;SDS011;4111;50.972;7.072;2023-07-08T02:18:18;5.65;;;5.05;;
8139;SDS011;4111;50.972;7.072;2023-07-08T02:20:45;5.47;;;5.00;;
8139;SDS011;4111;50.972;7.072;2023-07-08T02:23:13;5.23;;;4.80;;
8139;SDS011;4111;50.972;7.072;2023-07-08T02:25:40;6.90;;;5.13;;
8139;SDS011;4111;50.972;7.072;2023-07-08T02:28:07;5.27;;;4.87;;
8139;SDS011;4111;50.972;7.072;2023-07-08T02:30:33;5.40;;;4.60;;
8139;SDS011;4111;50.972;7.072;2023-07-08T02:33:00;5.57;;;5.00;;
8139;SDS011;4111;50.972;7.072;2023-07-08T02:35:30;5.53;;;4.70;;
8139;SDS011;4111;50.972;7.072;2023-07-08T02:37:57;5.83;;;4.50;;
8139;SDS011;4111;50.972;7.072;2023-07-08T02:40:24;5.63;;;5.10;;
8139;SDS011;4111;50.972;7.072;2023-07-08T02:42:51;4.83;;;4.43;;
8139;SDS011;4111;50.972;7.072;2023-07-08T02:45:18;5.30;;;4.80;;
8139;SDS011;4111;50.972;7.072;2023-07-08T02:47:45;4.37;;;3.97;;
8139;SDS011;4111;50.972;7.072;2023-07-08T02:50:11;4.70;;;4.30;;
8139;SDS011;4111;50.972;7.072;2023-07-08T02:52:39;4.73;;;4.23;;
8139;SDS011;4111;50.972;7.072;2023-07-08T02:55:05;5.57;;;4.97;;
8139;SDS011;4111;50.972;7.072;2023-07-08T02:57:32;6.37;;;4.70;;
8139;SDS011;4111;50.972;7.072;2023-07-08T02:59:58;5.93;;;4.90;;
8139;SDS011;4111;50.972;7.072;2023-07-08T03:02:25;7.20;;;5.30;;
8139;SDS011;4111;50.972;7.072;2023-07-08T03:04:52;5.97;;;4.63;;
8139;SDS011;4111;50.972;7.072;2023-07-08T03:07:20;5.93;;;5.03;;
8139;SDS011;4111;50.972;7.072;2023-07-08T03:09:47;6.47;;;4.90;;
8139;SDS011;4111;50.972;7.072;2023-07-08T03:12:13;5.30;;;4.80;;
8139;SDS011;4111;50.972;7.072;2023-07-08T03:14:39;5.90;;;5.37;;
8139;SDS011;4111;50.972;7.072;2023-07-08T03:17:06;5.50;;;4.80;;
8139;SDS011;4111;50.972;7.072;2023-07-08T03:19:32;7.30;;;4.50;;
8139;SDS011;4111;50.972;7.072;2023-07-08T03:21:59;6.83;;;4.80;;
8139;SDS011;4111;50.972;7.072;2023-07-08T03:24:28;6.90;;;5.10;;
8139;SDS011;4111;50.972;7.072;2023-07-08T03:26:56;5.73;;;4.87;;
8139;SDS011;4111;50.972;7.072;2023-07-08T03:29:25;6.40;;;4.80;;
8139;SDS011;4111;50.972;7.072;2023-07-08T03:31:52;5.30;;;4.77;;
8139;SDS011;4111;50.972;7.072;2023-07-08T03:34:18;5.80;;;5.20;;
8139;SDS011;4111;50.972;7.072;2023-07-08T03:36:46;5.70;;;5.10;;
8139;SDS011;4111;50.972;7.072;2023-07-08T03:39:21;6.73;;;5.70;;
8139;SDS011;4111;50.972;7.072;2023-07-08T03:41:50;5.50;;;5.00;;
8139;SDS011;4111;50.972;7.072;2023-07-08T03:44:17;6.40;;;5.10;;
8139;SDS011;4111;50.972;7.072;2023-07-08T03:46:44;7.50;;;5.47;;
8139;SDS011;4111;50.972;7.072;2023-07-08T03:49:12;5.37;;;4.77;;
8139;SDS011;4111;50.972;7.072;2023-07-08T03:51:39;6.80;;;5.13;;
8139;SDS011;4111;50.972;7.072;2023-07-08T03:54:14;5.57;;;4.90;;
8139;SDS011;4111;50.972;7.072;2023-07-08T03:56:41;5.60;;;4.73;;
8139;SDS011;4111;50.972;7.072;2023-07-08T03:59:09;5.80;;;5.30;;
8139;SDS011;4111;50.972;7.072;2023-07-08T04:01:36;6.90;;;5.50;;
8139;SDS011;4111;50.972;7.072;2023-07-08T04:04:08;5.50;;;4.80;;
8139;SDS011;4111;50.972;7.072;2023-07-08T04:06:37;6.13;;;5.40;;
8139;SDS011;4111;50.972;7.072;2023-07-08T04:09:04;5.53;;;5.03;;
8139;SDS011;4111;50.972;7.072;2023-07-08T04:11:30;6.63;;;4.77;;
8139;SDS011;4111;50.972;7.072;2023-07-08T04:13:57;5.93;;;4.83;;
8139;SDS011;4111;50.972;7.072;2023-07-08T04:16:30;6.53;;;5.23;;
8139;SDS011;4111;50.972;7.072;2023-07-08T04:19:02;5.33;;;4.77;;
8139;SDS011;4111;50.972;7.072;2023-07-08T04:21:29;5.30;;;4.80;;
8139;SDS011;4111;50.972;7.072;2023-07-08T04:23:56;5.43;;;4.93;;
8139;SDS011;4111;50.972;7.072;2023-07-08T04:26:23;5.13;;;4.30;;
8139;SDS011;4111;50.972;7.072;2023-07-08T04:28:49;5.03;;;4.53;;
8139;SDS011;4111;50.972;7.072;2023-07-08T04:31:16;5.33;;;4.83;;
8139;SDS011;4111;50.972;7.072;2023-07-08T04:33:42;5.23;;;4.73;;
8139;SDS011;4111;50.972;7.072;2023-07-08T04:36:10;5.60;;;4.90;;
8139;SDS011;4111;50.972;7.072;2023-07-08T04:38:39;5.47;;;4.83;;
8139;SDS011;4111;50.972;7.072;2023-07-08T04:41:07;5.90;;;5.07;;
8139;SDS011;4111;50.972;7.072;2023-07-08T04:43:33;6.43;;;5.13;;
8139;SDS011;4111;50.972;7.072;2023-07-08T04:46:00;6.30;;;4.97;;
8139;SDS011;4111;50.972;7.072;2023-07-08T04:48:26;6.90;;;5.47;;
8139;SDS011;4111;50.972;7.072;2023-07-08T04:50:53;5.47;;;4.70;;
8139;SDS011;4111;50.972;7.072;2023-07-08T04:53:19;8.37;;;4.80;;
8139;SDS011;4111;50.972;7.072;2023-07-08T04:55:50;5.53;;;5.00;;
8139;SDS011;4111;50.972;7.072;2023-07-08T04:58:18;5.17;;;4.70;;
8139;SDS011;4111;50.972;7.072;2023-07-08T05:00:45;5.47;;;4.97;;
8139;SDS011;4111;50.972;7.072;2023-07-08T05:03:12;5.83;;;4.77;;
8139;SDS011;4111;50.972;7.072;2023-07-08T05:05:38;6.80;;;5.00;;
8139;SDS011;4111;50.972;7.072;2023-07-08T05:08:06;7.40;;;4.60;;
8139;SDS011;4111;50.972;7.072;2023-07-08T05:10:33;9.57;;;5.07;;
8139;SDS011;4111;50.972;7.072;2023-07-08T05:13:00;6.80;;;4.80;;
8139;SDS011;4111;50.972;7.072;2023-07-08T05:15:26;5.67;;;5.07;;
8139;SDS011;4111;50.972;7.072;2023-07-08T05:17:53;5.47;;;4.57;;
8139;SDS011;4111;50.972;7.072;2023-07-08T05:20:19;6.80;;;5.00;;
8139;SDS011;4111;50.972;7.072;2023-07-08T05:22:46;6.37;;;4.53;;
8139;SDS011;4111;50.972;7.072;2023-07-08T05:25:13;5.03;;;4.53;;
8139;SDS011;4111;50.972;7.072;2023-07-08T05:27:39;4.60;;;4.30;;
8139;SDS011;4111;50.972;7.072;2023-07-08T05:30:07;6.00;;;4.50;;
8139;SDS011;4111;50.972;7.072;2023-07-08T05:32:34;9.80;;;4.40;;
8139;SDS011;4111;50.972;7.072;2023-07-08T05:35:01;5.43;;;4.17;;
8139;SDS011;4111;50.972;7.072;2023-07-08T05:37:28;6.00;;;3.97;;
8139;SDS011;4111;50.972;7.072;2023-07-08T05:39:55;4.60;;;4.13;;
8139;SDS011;4111;50.972;7.072;2023-07-08T05:42:24;5.50;;;4.07;;
8139;SDS011;4111;50.972;7.072;2023-07-08T05:44:50;6.57;;;4.63;;
8139;SDS011;4111;50.972;7.072;2023-07-08T05:47:18;6.23;;;3.93;;
8139;SDS011;4111;50.972;7.072;2023-07-08T05:49:44;4.67;;;4.07;;
8139;SDS011;4111;50.972;7.072;2023-07-08T05:52:11;4.17;;;3.77;;
8139;SDS011;4111;50.972;7.072;2023-07-08T05:54:37;4.17;;;3.80;;
8139;SDS011;4111;50.972;7.072;2023-07-08T05:57:05;4.23;;;3.77;;
8139;SDS011;4111;50.972;7.072;2023-07-08T05:59:32;8.00;;;4.30;;
8139;SDS011;4111;50.972;7.072;2023-07-08T06:02:02;3.83;;;3.53;;
8139;SDS011;4111;50.972;7.072;2023-07-08T06:04:29;4.63;;;4.17;;
8139;SDS011;4111;50.972;7.072;2023-07-08T06:06:57;4.63;;;3.70;;
8139;SDS011;4111;50.972;7.072;2023-07-08T06:09:24;4.40;;;4.00;;
8139;SDS011;4111;50.972;7.072;2023-07-08T06:11:50;4.30;;;3.90;;
8139;SDS011;4111;50.972;7.072;2023-07-08T06:14:16;4.43;;;4.03;;
8139;SDS011;4111;50.972;7.072;2023-07-08T06:16:43;3.97;;;3.60;;
8139;SDS011;4111;50.972;7.072;2023-07-08T06:19:12;5.03;;;3.92;;
8139;SDS011;4111;50.972;7.072;2023-07-08T06:21:41;4.65;;;3.80;;
8139;SDS011;4111;50.972;7.072;2023-07-08T06:24:07;3.88;;;3.58;;
8139;SDS011;4111;50.972;7.072;2023-07-08T06:26:34;4.30;;;3.90;;
8139;SDS011;4111;50.972;7.072;2023-07-08T06:29:01;4.47;;;4.07;;
8139;SDS011;4111;50.972;7.072;2023-07-08T06:31:28;5.93;;;3.88;;
8139;SDS011;4111;50.972;7.072;2023-07-08T06:33:55;4.45;;;4.03;;
8139;SDS011;4111;50.972;7.072;2023-07-08T06:36:21;4.93;;;4.07;;
8139;SDS011;4111;50.972;7.072;2023-07-08T06:38:48;4.57;;;4.07;;
8139;SDS011;4111;50.972;7.072;2023-07-08T06:41:15;4.38;;;3.90;;
8139;SDS011;4111;50.972;7.072;2023-07-08T06:43:41;3.97;;;3.67;;
8139;SDS011;4111;50.972;7.072;2023-07-08T06:46:08;5.38;;;4.00;;
8139;SDS011;4111;50.972;7.072;2023-07-08T06:48:34;4.45;;;4.05;;
8139;SDS011;4111;50.972;7.072;2023-07-08T06:51:01;4.35;;;4.00;;
8139;SDS011;4111;50.972;7.072;2023-07-08T06:53:28;7.40;;;3.80;;
8139;SDS011;4111;50.972;7.072;2023-07-08T06:55:54;4.03;;;3.70;;
8139;SDS011;4111;50.972;7.072;2023-07-08T06:58:20;5.75;;;4.13;;
8139;SDS011;4111;50.972;7.072;2023-07-08T07:00:47;7.20;;;4.07;;
8139;SDS011;4111;50.972;7.072;2023-07-08T07:03:13;4.97;;;4.30;;
8139;SDS011;4111;50.972;7.072;2023-07-08T07:05:40;4.47;;;4.07;;
8139;SDS011;4111;50.972;7.072;2023-07-08T07:08:06;5.40;;;4.68;;
8139;SDS011;4111;50.972;7.072;2023-07-08T07:10:34;4.35;;;3.75;;
8139;SDS011;4111;50.972;7.072;2023-07-08T07:13:02;4.43;;;4.03;;
8139;SDS011;4111;50.972;7.072;2023-07-08T07:15:29;5.32;;;4.43;;
8139;SDS011;4111;50.972;7.072;2023-07-08T07:17:57;4.30;;;3.90;;
8139;SDS011;4111;50.972;7.072;2023-07-08T07:20:24;16.48;;;4.60;;
8139;SDS011;4111;50.972;7.072;2023-07-08T07:22:52;6.60;;;4.50;;
8139;SDS011;4111;50.972;7.072;2023-07-08T07:25:19;8.20;;;4.53;;
8139;SDS011;4111;50.972;7.072;2023-07-08T07:27:45;7.05;;;4.90;;
8139;SDS011;4111;50.972;7.072;2023-07-08T07:30:12;5.00;;;4.50;;
8139;SDS011;4111;50.972;7.072;2023-07-08T07:32:42;6.13;;;4.53;;
8139;SDS011;4111;50.972;7.072;2023-07-08T07:35:09;7.22;;;4.50;;
8139;SDS011;4111;50.972;7.072;2023-07-08T07:37:41;5.07;;;4.55;;
8139;SDS011;4111;50.972;7.072;2023-07-08T07:40:11;8.82;;;5.47;;
8139;SDS011;4111;50.972;7.072;2023-07-08T07:42:41;5.57;;;4.78;;
8139;SDS011;4111;50.972;7.072;2023-07-08T07:45:08;6.38;;;5.05;;
8139;SDS011;4111;50.972;7.072;2023-07-08T07:47:36;6.13;;;4.60;;
8139;SDS011;4111;50.972;7.072;2023-07-08T07:50:03;4.57;;;4.18;;
8139;SDS011;4111;50.972;7.072;2023-07-08T07:52:31;5.70;;;4.80;;
8139;SDS011;4111;50.972;7.072;2023-07-08T07:54:58;6.13;;;5.10;;
8139;SDS011;4111;50.972;7.072;2023-07-08T07:57:25;5.78;;;5.25;;
8139;SDS011;4111;50.972;7.072;2023-07-08T07:59:51;7.00;;;5.07;;
8139;SDS011;4111;50.972;7.072;2023-07-08T08:02:18;5.10;;;4.60;;
8139;SDS011;4111;50.972;7.072;2023-07-08T08:04:45;7.65;;;5.18;;
8139;SDS011;4111;50.972;7.072;2023-07-08T08:07:12;5.07;;;4.53;;
8139;SDS011;4111;50.972;7.072;2023-07-08T08:09:39;7.32;;;5.05;;
8139;SDS011;4111;50.972;7.072;2023-07-08T08:12:06;5.00;;;4.50;;
8139;SDS011;4111;50.972;7.072;2023-07-08T08:14:34;6.25;;;4.68;;
8139;SDS011;4111;50.972;7.072;2023-07-08T08:17:01;8.60;;;5.10;;
8139;SDS011;4111;50.972;7.072;2023-07-08T08:19:28;9.75;;;5.53;;
8139;SDS011;4111;50.972;7.072;2023-07-08T08:21:55;5.32;;;4.75;;
8139;SDS011;4111;50.972;7.072;2023-07-08T08:24:22;6.18;;;4.78;;
8139;SDS011;4111;50.972;7.072;2023-07-08T08:26:51;7.28;;;5.55;;
8139;SDS011;4111;50.972;7.072;2023-07-08T08:29:18;5.30;;;4.80;;
8139;SDS011;4111;50.972;7.072;2023-07-08T08:31:44;6.80;;;4.60;;
8139;SDS011;4111;50.972;7.072;2023-07-08T08:34:10;5.85;;;4.95;;
8139;SDS011;4111;50.972;7.072;2023-07-08T08:36:37;6.45;;;5.28;;
8139;SDS011;4111;50.972;7.072;2023-07-08T08:39:03;6.18;;;4.50;;
8139;SDS011;4111;50.972;7.072;2023-07-08T08:41:31;5.25;;;4.75;;
8139;SDS011;4111;50.972;7.072;2023-07-08T08:44:00;6.75;;;5.03;;
8139;SDS011;4111;50.972;7.072;2023-07-08T08:46:38;6.82;;;5.50;;
8139;SDS011;4111;50.972;7.072;2023-07-08T08:49:13;7.18;;;5.20;;
8139;SDS011;4111;50.972;7.072;2023-07-08T08:51:42;5.53;;;4.90;;
8139;SDS011;4111;50.972;7.072;2023-07-08T08:54:08;6.25;;;5.65;;
8139;SDS011;4111;50.972;7.072;2023-07-08T08:56:39;7.32;;;4.30;;
8139;SDS011;4111;50.972;7.072;2023-07-08T09:01:49;5.18;;;4.30;;
8139;SDS011;4111;50.972;7.072;2023-07-08T09:04:20;5.13;;;4.38;;
8139;SDS011;4111;50.972;7.072;2023-07-08T09:06:50;5.00;;;4.60;;
8139;SDS011;4111;50.972;7.072;2023-07-08T09:09:37;5.25;;;4.85;;
8139;SDS011;4111;50.972;7.072;2023-07-08T09:12:18;9.07;;;4.60;;
8139;SDS011;4111;50.972;7.072;2023-07-08T09:14:47;4.63;;;4.22;;
8139;SDS011;4111;50.972;7.072;2023-07-08T09:17:32;6.90;;;4.65;;
8139;SDS011;4111;50.972;7.072;2023-07-08T09:22:34;3.97;;;3.67;;
8139;SDS011;4111;50.972;7.072;2023-07-08T09:28:08;5.38;;;4.45;;
8139;SDS011;4111;50.972;7.072;2023-07-08T09:30:35;5.55;;;4.53;;
8139;SDS011;4111;50.972;7.072;2023-07-08T09:33:04;6.40;;;4.50;;
8139;SDS011;4111;50.972;7.072;2023-07-08T09:35:38;4.53;;;4.13;;
8139;SDS011;4111;50.972;7.072;2023-07-08T09:38:07;5.60;;;5.00;;
8139;SDS011;4111;50.972;7.072;2023-07-08T09:40:35;4.70;;;4.03;;
8139;SDS011;4111;50.972;7.072;2023-07-08T09:45:41;4.70;;;4.30;;
8139;SDS011;4111;50.972;7.072;2023-07-08T09:48:21;4.80;;;4.28;;
8139;SDS011;4111;50.972;7.072;2023-07-08T09:50:52;7.57;;;4.40;;
8139;SDS011;4111;50.972;7.072;2023-07-08T09:53:20;4.70;;;4.28;;
8139;SDS011;4111;50.972;7.072;2023-07-08T09:55:47;4.72;;;4.30;;
8139;SDS011;4111;50.972;7.072;2023-07-08T09:58:36;4.85;;;4.45;;
8139;SDS011;4111;50.972;7.072;2023-07-08T10:01:15;5.90;;;4.15;;
8139;SDS011;4111;50.972;7.072;2023-07-08T10:03:52;4.70;;;4.22;;
8139;SDS011;4111;50.972;7.072;2023-07-08T10:06:25;4.90;;;4.30;;
8139;SDS011;4111;50.972;7.072;2023-07-08T10:08:54;5.50;;;4.60;;
8139;SDS011;4111;50.972;7.072;2023-07-08T10:11:31;5.10;;;4.50;;
8139;SDS011;4111;50.972;7.072;2023-07-08T10:14:04;6.55;;;4.22;;
8139;SDS011;4111;50.972;7.072;2023-07-08T10:16:40;10.52;;;5.18;;
8139;SDS011;4111;50.972;7.072;2023-07-08T10:19:14;6.50;;;4.40;;
8139;SDS011;4111;50.972;7.072;2023-07-08T10:21:51;4.40;;;4.00;;
8139;SDS011;4111;50.972;7.072;2023-07-08T10:35:36;4.75;;;4.30;;
8139;SDS011;4111;50.972;7.072;2023-07-08T10:40:47;5.45;;;4.50;;
8139;SDS011;4111;50.972;7.072;2023-07-08T10:43:21;5.10;;;4.13;;
8139;SDS011;4111;50.972;7.072;2023-07-08T10:45:53;6.78;;;4.63;;
8139;SDS011;4111;50.972;7.072;2023-07-08T10:48:55;8.18;;;4.82;;
8139;SDS011;4111;50.972;7.072;2023-07-08T10:56:57;6.78;;;4.47;;
8139;SDS011;4111;50.972;7.072;2023-07-08T11:05:33;6.32;;;4.40;;
8139;SDS011;4111;50.972;7.072;2023-07-08T11:08:10;5.40;;;4.30;;
8139;SDS011;4111;50.972;7.072;2023-07-08T11:13:32;7.53;;;4.43;;
8139;SDS011;4111;50.972;7.072;2023-07-08T11:16:06;7.10;;;4.60;;
8139;SDS011;4111;50.972;7.072;2023-07-08T11:18:43;6.13;;;4.30;;
8139;SDS011;4111;50.972;7.072;2023-07-08T11:21:16;4.50;;;4.10;;
8139;SDS011;4111;50.972;7.072;2023-07-08T11:23:50;4.82;;;4.20;;
8139;SDS011;4111;50.972;7.072;2023-07-08T11:26:23;6.00;;;4.40;;
8139;SDS011;4111;50.972;7.072;2023-07-08T11:28:58;8.10;;;4.50;;
8139;SDS011;4111;50.972;7.072;2023-07-08T11:31:28;5.30;;;4.07;;
8139;SDS011;4111;50.972;7.072;2023-07-08T11:33:58;6.47;;;4.28;;
8139;SDS011;4111;50.972;7.072;2023-07-08T11:36:27;4.63;;;4.18;;
8139;SDS011;4111;50.972;7.072;2023-07-08T11:38:55;8.07;;;4.95;;
8139;SDS011;4111;50.972;7.072;2023-07-08T11:41:24;6.13;;;4.35;;
8139;SDS011;4111;50.972;7.072;2023-07-08T11:43:58;4.82;;;4.30;;
8139;SDS011;4111;50.972;7.072;2023-07-08T11:46:32;5.68;;;4.13;;
8139;SDS011;4111;50.972;7.072;2023-07-08T11:49:02;5.10;;;4.60;;
8139;SDS011;4111;50.972;7.072;2023-07-08T11:51:35;7.45;;;4.35;;
8139;SDS011;4111;50.972;7.072;2023-07-08T11:57:05;5.25;;;4.53;;
8139;SDS011;4111;50.972;7.072;2023-07-08T11:59:38;5.72;;;4.68;;
8139;SDS011;4111;50.972;7.072;2023-07-08T12:02:19;7.88;;;4.15;;
8139;SDS011;4111;50.972;7.072;2023-07-08T12:04:55;5.55;;;4.07;;
8139;SDS011;4111;50.972;7.072;2023-07-08T12:07:37;7.03;;;4.30;;
8139;SDS011;4111;50.972;7.072;2023-07-08T12:10:11;6.55;;;4.20;;
8139;SDS011;4111;50.972;7.072;2023-07-08T12:12:59;6.35;;;4.43;;
8139;SDS011;4111;50.972;7.072;2023-07-08T12:15:26;7.45;;;4.68;;
8139;SDS011;4111;50.972;7.072;2023-07-08T12:17:56;7.65;;;4.78;;
8139;SDS011;4111;50.972;7.072;2023-07-08T12:20:31;4.85;;;4.43;;
8139;SDS011;4111;50.972;7.072;2023-07-08T12:23:00;6.32;;;4.18;;
8139;SDS011;4111;50.972;7.072;2023-07-08T12:25:31;8.45;;;4.85;;
8139;SDS011;4111;50.972;7.072;2023-07-08T12:28:00;6.80;;;4.57;;
8139;SDS011;4111;50.972;7.072;2023-07-08T12:30:28;8.52;;;4.80;;
8139;SDS011;4111;50.972;7.072;2023-07-08T12:32:56;6.75;;;4.18;;
8139;SDS011;4111;50.972;7.072;2023-07-08T12:35:28;7.07;;;4.28;;
8139;SDS011;4111;50.972;7.072;2023-07-08T12:38:01;5.38;;;4.35;;
8139;SDS011;4111;50.972;7.072;2023-07-08T12:40:36;6.53;;;4.40;;
8139;SDS011;4111;50.972;7.072;2023-07-08T12:43:07;7.85;;;4.25;;
8139;SDS011;4111;50.972;7.072;2023-07-08T12:45:36;5.30;;;4.60;;
8139;SDS011;4111;50.972;7.072;2023-07-08T12:48:03;5.63;;;4.22;;
8139;SDS011;4111;50.972;7.072;2023-07-08T12:50:29;8.35;;;4.43;;
8139;SDS011;4111;50.972;7.072;2023-07-08T12:52:56;6.00;;;4.80;;
8139;SDS011;4111;50.972;7.072;2023-07-08T12:55:22;9.05;;;4.53;;
8139;SDS011;4111;50.972;7.072;2023-07-08T12:57:50;4.57;;;4.15;;
8139;SDS011;4111;50.972;7.072;2023-07-08T13:00:21;6.45;;;4.88;;
8139;SDS011;4111;50.972;7.072;2023-07-08T13:03:02;6.43;;;4.63;;
8139;SDS011;4111;50.972;7.072;2023-07-08T13:05:34;8.38;;;4.30;;
8139;SDS011;4111;50.972;7.072;2023-07-08T13:08:01;5.35;;;4.80;;
8139;SDS011;4111;50.972;7.072;2023-07-08T13:10:28;5.45;;;4.88;;
8139;SDS011;4111;50.972;7.072;2023-07-08T13:12:57;6.70;;;4.93;;
8139;SDS011;4111;50.972;7.072;2023-07-08T13:15:28;7.45;;;4.15;;
8139;SDS011;4111;50.972;7.072;2023-07-08T13:18:00;5.60;;;5.10;;
8139;SDS011;4111;50.972;7.072;2023-07-08T13:20:27;7.97;;;5.13;;
8139;SDS011;4111;50.972;7.072;2023-07-08T13:22:55;6.22;;;5.05;;
8139;SDS011;4111;50.972;7.072;2023-07-08T13:25:29;9.57;;;4.75;;
8139;SDS011;4111;50.972;7.072;2023-07-08T13:27:59;7.50;;;4.45;;
8139;SDS011;4111;50.972;7.072;2023-07-08T13:30:28;7.75;;;5.10;;
8139;SDS011;4111;50.972;7.072;2023-07-08T13:32:56;7.72;;;5.07;;
8139;SDS011;4111;50.972;7.072;2023-07-08T13:35:35;5.43;;;4.90;;
8139;SDS011;4111;50.972;7.072;2023-07-08T13:38:04;8.60;;;5.00;;
8139;SDS011;4111;50.972;7.072;2023-07-08T13:40:31;7.45;;;4.90;;
8139;SDS011;4111;50.972;7.072;2023-07-08T13:42:57;8.18;;;4.80;;
8139;SDS011;4111;50.972;7.072;2023-07-08T13:45:26;8.13;;;6.28;;
8139;SDS011;4111;50.972;7.072;2023-07-08T13:50:37;8.57;;;5.35;;
8139;SDS011;4111;50.972;7.072;2023-07-08T13:53:19;5.45;;;4.88;;
8139;SDS011;4111;50.972;7.072;2023-07-08T13:56:14;7.40;;;4.90;;
8139;SDS011;4111;50.972;7.072;2023-07-08T13:58:45;5.10;;;4.70;;
8139;SDS011;4111;50.972;7.072;2023-07-08T14:01:16;7.07;;;4.90;;
8139;SDS011;4111;50.972;7.072;2023-07-08T14:03:49;7.25;;;4.97;;
8139;SDS011;4111;50.972;7.072;2023-07-08T14:06:20;5.80;;;4.72;;
8139;SDS011;4111;50.972;7.072;2023-07-08T14:08:49;7.32;;;5.05;;
8139;SDS011;4111;50.972;7.072;2023-07-08T14:11:17;5.40;;;4.47;;
8139;SDS011;4111;50.972;7.072;2023-07-08T14:13:43;12.15;;;5.32;;
8139;SDS011;4111;50.972;7.072;2023-07-08T14:16:19;7.28;;;5.30;;
8139;SDS011;4111;50.972;7.072;2023-07-08T14:18:56;6.63;;;4.68;;
8139;SDS011;4111;50.972;7.072;2023-07-08T14:21:25;5.25;;;4.75;;
8139;SDS011;4111;50.972;7.072;2023-07-08T14:23:52;9.13;;;5.20;;
8139;SDS011;4111;50.972;7.072;2023-07-08T14:26:20;7.65;;;5.07;;
8139;SDS011;4111;50.972;7.072;2023-07-08T14:28:46;8.38;;;5.28;;
8139;SDS011;4111;50.972;7.072;2023-07-08T14:31:23;5.30;;;4.80;;
8139;SDS011;4111;50.972;7.072;2023-07-08T14:33:55;6.90;;;5.50;;
8139;SDS011;4111;50.972;7.072;2023-07-08T14:36:28;5.30;;;4.80;;
8139;SDS011;4111;50.972;7.072;2023-07-08T14:38:54;7.55;;;5.10;;
8139;SDS011;4111;50.972;7.072;2023-07-08T14:41:21;7.10;;;5.30;;
8139;SDS011;4111;50.972;7.072;2023-07-08T14:43:48;6.13;;;5.45;;
8139;SDS011;4111;50.972;7.072;2023-07-08T14:46:14;6.03;;;5.13;;
8139;SDS011;4111;50.972;7.072;2023-07-08T14:48:42;11.25;;;5.57;;
8139;SDS011;4111;50.972;7.072;2023-07-08T14:51:09;7.07;;;4.90;;
8139;SDS011;4111;50.972;7.072;2023-07-08T14:53:35;11.48;;;4.68;;
8139;SDS011;4111;50.972;7.072;2023-07-08T14:56:04;5.97;;;5.15;;
8139;SDS011;4111;50.972;7.072;2023-07-08T14:58:38;5.68;;;5.13;;
8139;SDS011;4111;50.972;7.072;2023-07-08T15:01:12;6.10;;;5.50;;
8139;SDS011;4111;50.972;7.072;2023-07-08T15:03:45;8.07;;;5.18;;
8139;SDS011;4111;50.972;7.072;2023-07-08T15:06:12;8.70;;;5.80;;
8139;SDS011;4111;50.972;7.072;2023-07-08T15:08:38;7.22;;;5.45;;
8139;SDS011;4111;50.972;7.072;2023-07-08T15:11:05;7.00;;;5.13;;
8139;SDS011;4111;50.972;7.072;2023-07-08T15:13:33;6.32;;;5.50;;
8139;SDS011;4111;50.972;7.072;2023-07-08T15:16:00;8.57;;;5.00;;
8139;SDS011;4111;50.972;7.072;2023-07-08T15:18:27;10.27;;;8.52;;
8139;SDS011;4111;50.972;7.072;2023-07-08T15:20:54;6.05;;;5.18;;
8139;SDS011;4111;50.972;7.072;2023-07-08T15:23:21;8.15;;;5.38;;
8139;SDS011;4111;50.972;7.072;2023-07-08T15:25:47;6.60;;;5.32;;
8139;SDS011;4111;50.972;7.072;2023-07-08T15:28:19;8.00;;;5.35;;
8139;SDS011;4111;50.972;7.072;2023-07-08T15:30:50;6.05;;;5.03;;
8139;SDS011;4111;50.972;7.072;2023-07-08T15:33:18;8.07;;;6.00;;
8139;SDS011;4111;50.972;7.072;2023-07-08T15:35:44;8.05;;;5.40;;
8139;SDS011;4111;50.972;7.072;2023-07-08T15:38:11;8.73;;;5.57;;
8139;SDS011;4111;50.972;7.072;2023-07-08T15:40:37;7.10;;;5.53;;
8139;SDS011;4111;50.972;7.072;2023-07-08T15:43:04;5.45;;;4.82;;
8139;SDS011;4111;50.972;7.072;2023-07-08T15:45:38;5.72;;;5.15;;
8139;SDS011;4111;50.972;7.072;2023-07-08T15:48:13;7.47;;;5.38;;
8139;SDS011;4111;50.972;7.072;2023-07-08T15:50:40;8.30;;;5.82;;
8139;SDS011;4111;50.972;7.072;2023-07-08T15:53:07;6.63;;;5.38;;
8139;SDS011;4111;50.972;7.072;2023-07-08T15:55:34;5.72;;;4.95;;
8139;SDS011;4111;50.972;7.072;2023-07-08T15:58:04;6.65;;;5.30;;
8139;SDS011;4111;50.972;7.072;2023-07-08T16:00:34;6.53;;;5.07;;
8139;SDS011;4111;50.972;7.072;2023-07-08T16:03:06;8.30;;;4.95;;
8139;SDS011;4111;50.972;7.072;2023-07-08T16:05:36;7.63;;;5.65;;
8139;SDS011;4111;50.972;7.072;2023-07-08T16:08:03;7.13;;;5.90;;
8139;SDS011;4111;50.972;7.072;2023-07-08T16:10:29;7.30;;;5.57;;
8139;SDS011;4111;50.972;7.072;2023-07-08T16:12:56;8.93;;;5.70;;
8139;SDS011;4111;50.972;7.072;2023-07-08T16:15:28;6.10;;;5.40;;
8139;SDS011;4111;50.972;7.072;2023-07-08T16:17:57;8.35;;;5.25;;